Time;durP1;ratioP1;P1;durP2;ratioP2;P2;SDS_P1;SDS_P2;PMS_P1;PMS_P2;Temp;Humidity;BMP_temperature;BMP_pressure;BME280_temperature;BME280_humidity;BME280_pressure;Samples;Min_cycle;Max_cycle;Signal;HPM_P1;HPM_P2
2023/12/07 00:01:21;;;;;;;26.03;13.97;;;1.90;99.90;;;;;;4937426;29;20888;-89
2023/12/07 00:03:47;;;;;;;24.20;12.67;;;1.90;99.90;;;;;;4938073;29;20039;-88
2023/12/07 00:06:13;;;;;;;22.90;12.77;;;1.90;99.90;;;;;;4937864;29;20091;-88
2023/12/07 00:08:38;;;;;;;22.67;13.60;;;1.90;99.90;;;;;;4937389;29;20047;-88
2023/12/07 00:11:04;;;;;;;23.47;13.67;;;1.90;99.90;;;;;;4953820;29;20486;-88
2023/12/07 00:13:36;;;;;;;25.43;13.20;;;3.00;99.90;;;;;;4954249;29;20031;-89
2023/12/07 00:16:02;;;;;;;26.87;14.10;;;1.90;99.90;;;;;;4937142;29;20051;-88
2023/12/07 00:18:27;;;;;;;22.93;12.73;;;2.00;99.90;;;;;;4953729;29;20043;-88
2023/12/07 00:20:53;;;;;;;25.57;14.03;;;2.00;99.90;;;;;;4934050;29;20058;-88
2023/12/07 00:23:18;;;;;;;24.80;13.60;;;2.60;99.90;;;;;;4934168;29;20075;-88
2023/12/07 00:25:45;;;;;;;23.67;12.83;;;3.40;99.90;;;;;;4918877;29;20110;-89
2023/12/07 00:28:11;;;;;;;24.73;12.87;;;1.90;99.90;;;;;;4918487;29;20099;-88
2023/12/07 00:30:37;;;;;;;24.77;13.03;;;1.90;99.90;;;;;;4917837;29;20036;-88
2023/12/07 00:33:02;;;;;;;24.77;12.80;;;1.90;99.90;;;;;;4918377;29;20055;-88
2023/12/07 00:35:28;;;;;;;23.00;13.30;;;1.90;99.90;;;;;;4934367;29;20048;-88
2023/12/07 00:37:56;;;;;;;21.87;12.10;;;1.90;99.90;;;;;;4933999;29;20464;-88
2023/12/07 00:40:22;;;;;;;26.10;13.23;;;1.90;99.90;;;;;;4919024;29;20161;-87
2023/12/07 00:42:47;;;;;;;21.60;12.27;;;1.90;99.90;;;;;;4918161;29;20048;-88
2023/12/07 00:45:13;;;;;;;21.07;11.57;;;1.90;99.90;;;;;;4934456;29;20094;-88
2023/12/07 00:47:40;;;;;;;21.33;12.00;;;2.40;99.90;;;;;;4918421;29;20177;-88
2023/12/07 00:50:06;;;;;;;21.17;11.90;;;1.90;99.90;;;;;;4956595;28;20051;-88
2023/12/07 00:52:32;;;;;;;21.43;11.30;;;1.80;99.90;;;;;;4936708;29;20195;-88
2023/12/07 00:54:57;;;;;;;26.63;12.03;;;2.10;99.90;;;;;;4938661;29;20503;-88
2023/12/07 00:57:23;;;;;;;21.77;11.77;;;1.80;99.90;;;;;;4936810;29;20058;-87
2023/12/07 00:59:49;;;;;;;21.83;11.60;;;2.40;99.90;;;;;;4937224;29;20051;-88
2023/12/07 01:02:14;;;;;;;23.57;11.70;;;1.80;99.90;;;;;;4937086;29;20047;-88
2023/12/07 01:04:40;;;;;;;24.57;12.47;;;2.80;99.90;;;;;;4936580;29;20046;-88
2023/12/07 01:07:06;;;;;;;21.83;12.10;;;1.80;99.90;;;;;;4941843;29;20106;-88
2023/12/07 01:09:33;;;;;;;19.80;10.90;;;1.70;99.90;;;;;;4937350;29;20039;-88
2023/12/07 01:11:58;;;;;;;20.00;11.13;;;1.70;99.90;;;;;;4954199;29;20399;-88
2023/12/07 01:14:24;;;;;;;20.53;11.80;;;1.80;99.90;;;;;;4937831;29;20043;-88
2023/12/07 01:16:50;;;;;;;19.87;11.87;;;3.30;99.90;;;;;;4937556;29;20049;-88
2023/12/07 01:19:16;;;;;;;21.87;11.87;;;1.80;99.90;;;;;;4937241;29;20051;-88
2023/12/07 01:21:42;;;;;;;19.60;11.10;;;2.60;99.90;;;;;;4937272;29;20051;-88
2023/12/07 01:24:08;;;;;;;20.63;11.50;;;3.00;99.90;;;;;;4937247;29;20427;-89
2023/12/07 01:26:34;;;;;;;22.27;10.73;;;1.80;99.90;;;;;;4936485;29;20407;-88
2023/12/07 01:28:59;;;;;;;21.17;10.93;;;1.80;99.90;;;;;;4937250;29;20043;-88
2023/12/07 01:31:25;;;;;;;19.60;10.47;;;2.30;99.90;;;;;;4936943;29;20082;-88
2023/12/07 01:33:51;;;;;;;19.73;11.07;;;1.80;99.90;;;;;;4938880;29;20182;-88
2023/12/07 01:36:17;;;;;;;22.87;11.10;;;1.80;99.90;;;;;;4940453;29;20094;-88
2023/12/07 01:38:43;;;;;;;23.33;11.93;;;1.90;99.90;;;;;;4956669;29;20094;-89
2023/12/07 01:41:09;;;;;;;22.27;12.00;;;1.80;99.90;;;;;;4956031;29;20129;-88
2023/12/07 01:43:35;;;;;;;20.93;11.37;;;1.80;99.90;;;;;;4940754;29;20043;-89
2023/12/07 01:46:01;;;;;;;22.87;12.03;;;1.80;99.90;;;;;;4940454;29;20043;-88
2023/12/07 01:48:28;;;;;;;22.17;11.70;;;1.80;99.90;;;;;;4941069;29;20133;-88
2023/12/07 01:50:54;;;;;;;22.83;11.70;;;1.80;99.90;;;;;;4940577;29;20381;-88
2023/12/07 01:53:23;;;;;;;21.83;11.73;;;1.80;99.90;;;;;;4956425;29;20512;-88
2023/12/07 01:55:50;;;;;;;22.90;12.10;;;1.80;99.90;;;;;;4940278;29;20162;-88
2023/12/07 01:58:18;;;;;;;21.13;11.80;;;1.90;99.90;;;;;;4941353;29;20083;-88
2023/12/07 02:00:44;;;;;;;22.03;11.97;;;1.80;99.90;;;;;;4950171;29;20051;-88
2023/12/07 02:03:11;;;;;;;21.50;11.67;;;2.70;99.90;;;;;;4959297;29;20047;-88
2023/12/07 02:05:37;;;;;;;22.73;12.07;;;1.70;99.90;;;;;;4940304;29;20051;-89
2023/12/07 02:08:03;;;;;;;25.43;12.93;;;1.70;99.90;;;;;;4939399;29;20563;-89
2023/12/07 02:10:30;;;;;;;25.87;12.40;;;1.70;99.90;;;;;;4939961;29;20087;-88
2023/12/07 02:13:05;;;;;;;24.10;12.90;;;1.70;99.90;;;;;;4940203;29;20089;-88
2023/12/07 02:15:30;;;;;;;25.93;13.43;;;1.70;99.90;;;;;;4939444;29;20047;-88
2023/12/07 02:18:28;;;;;;;25.87;12.90;;;1.70;99.90;;;;;;4946882;23;20118;-89
2023/12/07 02:20:57;;;;;;;24.00;13.07;;;1.70;99.90;;;;;;4974608;28;20089;-88
2023/12/07 02:23:24;;;;;;;25.37;12.90;;;1.60;99.90;;;;;;4974670;28;20078;-89
2023/12/07 02:25:54;;;;;;;24.73;13.20;;;1.60;99.90;;;;;;4975494;28;20047;-89
2023/12/07 02:28:20;;;;;;;25.47;13.60;;;1.60;99.90;;;;;;4975595;28;20720;-88
2023/12/07 02:30:46;;;;;;;25.93;13.13;;;1.60;99.90;;;;;;4977140;28;20080;-89
2023/12/07 02:33:12;;;;;;;25.47;14.00;;;1.50;99.90;;;;;;4975269;28;20077;-88
2023/12/07 02:35:40;;;;;;;25.57;14.10;;;1.50;99.90;;;;;;4975702;28;20483;-88
2023/12/07 02:38:07;;;;;;;28.77;14.43;;;1.50;99.90;;;;;;4976787;28;20090;-88
2023/12/07 02:40:36;;;;;;;25.33;13.17;;;1.50;99.90;;;;;;4975515;28;20435;-88
2023/12/07 02:43:03;;;;;;;24.97;13.67;;;3.00;99.90;;;;;;4974295;28;20432;-88
2023/12/07 02:45:30;;;;;;;27.77;13.70;;;1.60;99.90;;;;;;4973930;28;20362;-88
2023/12/07 02:47:57;;;;;;;27.33;14.00;;;1.50;99.90;;;;;;4976687;28;20062;-88
2023/12/07 02:50:22;;;;;;;24.53;13.27;;;1.50;99.90;;;;;;4965680;28;20488;-89
2023/12/07 02:52:48;;;;;;;27.87;14.20;;;1.50;99.90;;;;;;4974822;28;20051;-88
2023/12/07 02:55:14;;;;;;;25.17;13.33;;;1.50;99.90;;;;;;4975535;28;20505;-88
2023/12/07 02:57:39;;;;;;;24.13;13.70;;;1.50;99.90;;;;;;4955002;29;20146;-88
2023/12/07 03:00:06;;;;;;;30.03;14.20;;;1.40;99.90;;;;;;4955051;29;20054;-88
2023/12/07 03:02:39;;;;;;;24.37;13.10;;;1.40;99.90;;;;;;4955471;29;20069;-88
2023/12/07 03:05:06;;;;;;;26.30;13.88;;;1.40;99.90;;;;;;4953497;29;20376;-88
2023/12/07 03:07:32;;;;;;;25.67;14.10;;;1.40;99.90;;;;;;4955164;29;20054;-88
2023/12/07 03:09:58;;;;;;;29.30;13.70;;;1.40;99.90;;;;;;4954944;29;20039;-88
2023/12/07 03:12:24;;;;;;;25.90;14.20;;;1.40;99.90;;;;;;4954772;29;20069;-89
2023/12/07 03:14:49;;;;;;;27.63;14.50;;;1.40;99.90;;;;;;4955073;29;20102;-89
2023/12/07 03:17:15;;;;;;;28.87;14.53;;;1.40;99.90;;;;;;4955139;29;20133;-89
2023/12/07 03:19:41;;;;;;;27.43;14.53;;;1.40;99.90;;;;;;4953870;28;20051;-88
2023/12/07 03:22:10;;;;;;;26.67;14.47;;;1.30;99.90;;;;;;4954576;29;20093;-88
2023/12/07 03:24:37;;;;;;;28.60;14.57;;;2.20;99.90;;;;;;4954989;29;20142;-89
2023/12/07 03:27:02;;;;;;;27.40;14.53;;;1.30;99.90;;;;;;4953691;29;20483;-89
2023/12/07 03:29:28;;;;;;;29.17;14.63;;;1.20;99.90;;;;;;4954844;29;20049;-89
2023/12/07 03:31:54;;;;;;;29.03;14.63;;;1.20;99.90;;;;;;4954062;29;20135;-89
2023/12/07 03:34:19;;;;;;;28.37;14.17;;;1.10;99.90;;;;;;4953823;29;20049;-89
2023/12/07 03:36:48;;;;;;;32.30;14.57;;;1.10;99.90;;;;;;4954561;29;20727;-89
2023/12/07 03:39:15;;;;;;;27.90;14.40;;;1.00;99.90;;;;;;4953646;29;20039;-88
2023/12/07 03:41:41;;;;;;;27.33;14.83;;;0.90;99.90;;;;;;4954467;29;20051;-89
2023/12/07 03:44:07;;;;;;;31.13;14.37;;;0.90;99.90;;;;;;4954460;29;20387;-89
2023/12/07 03:46:35;;;;;;;25.13;11.73;;;0.80;99.90;;;;;;4953533;29;20047;-89
2023/12/07 03:49:00;;;;;;;25.30;11.57;;;0.70;99.90;;;;;;4954795;29;20160;-88
2023/12/07 03:51:29;;;;;;;29.50;15.17;;;0.60;99.90;;;;;;4954642;29;20122;-89
2023/12/07 03:53:55;;;;;;;35.90;15.57;;;0.60;99.90;;;;;;4953123;29;20130;-89
2023/12/07 03:56:25;;;;;;;31.00;15.07;;;0.60;99.90;;;;;;4955181;28;20651;-89
2023/12/07 03:58:51;;;;;;;25.87;11.93;;;0.40;99.90;;;;;;4954320;29;20058;-88
2023/12/07 04:01:16;;;;;;;23.07;9.37;;;0.40;99.90;;;;;;4953862;29;20043;-89
2023/12/07 04:03:42;;;;;;;22.40;9.60;;;0.40;99.90;;;;;;4954403;29;20043;-89
2023/12/07 04:06:08;;;;;;;20.60;9.30;;;0.30;99.90;;;;;;4953800;29;20047;-89
2023/12/07 04:08:34;;;;;;;20.97;8.77;;;0.30;99.90;;;;;;4953829;29;20039;-89
2023/12/07 04:11:00;;;;;;;19.60;9.17;;;0.30;99.90;;;;;;4954203;29;20518;-89
2023/12/07 04:13:25;;;;;;;23.07;9.70;;;0.20;99.90;;;;;;4956203;29;20051;-89
2023/12/07 04:15:51;;;;;;;20.93;9.37;;;0.20;99.90;;;;;;4953766;29;20094;-89
2023/12/07 04:18:17;;;;;;;23.90;9.63;;;0.20;99.90;;;;;;4953999;28;20051;-88
2023/12/07 04:20:43;;;;;;;23.27;9.73;;;0.20;99.90;;;;;;4955642;29;20054;-88
2023/12/07 04:23:09;;;;;;;24.80;11.00;;;0.20;99.90;;;;;;4955395;29;20051;-90
2023/12/07 04:25:34;;;;;;;24.70;10.33;;;0.20;99.90;;;;;;4953980;29;20051;-89
2023/12/07 04:28:00;;;;;;;26.73;10.87;;;0.20;99.90;;;;;;4954922;29;20058;-89
2023/12/07 04:30:26;;;;;;;23.50;10.53;;;0.20;99.90;;;;;;4954120;29;20043;-88
2023/12/07 04:32:51;;;;;;;23.60;10.43;;;0.30;99.90;;;;;;4953558;29;20058;-88
2023/12/07 04:35:17;;;;;;;23.90;10.70;;;0.30;99.90;;;;;;4954212;29;20050;-88
2023/12/07 04:37:43;;;;;;;26.77;11.07;;;0.30;99.90;;;;;;4953302;29;20562;-89
2023/12/07 04:40:10;;;;;;;25.50;10.97;;;0.30;99.90;;;;;;4953241;29;20049;-88
2023/12/07 04:42:36;;;;;;;24.67;10.47;;;0.30;99.90;;;;;;4952855;29;20043;-89
2023/12/07 04:45:02;;;;;;;25.13;11.93;;;1.00;99.90;;;;;;4953062;29;20463;-89
2023/12/07 04:47:28;;;;;;;26.57;11.33;;;0.30;99.90;;;;;;4953359;29;20070;-89
2023/12/07 04:49:53;;;;;;;25.43;11.70;;;0.30;99.90;;;;;;4952488;29;20415;-88
2023/12/07 04:52:19;;;;;;;25.00;11.70;;;0.30;99.90;;;;;;4954647;29;20480;-89
2023/12/07 04:54:45;;;;;;;27.33;11.80;;;0.30;99.90;;;;;;4953617;29;20059;-89
2023/12/07 04:57:10;;;;;;;25.07;11.50;;;0.30;99.90;;;;;;4952459;29;20058;-88
2023/12/07 04:59:36;;;;;;;26.50;11.43;;;0.30;99.90;;;;;;4953858;29;20055;-89
2023/12/07 05:02:02;;;;;;;30.17;12.60;;;0.30;99.90;;;;;;4963960;28;20081;-89
2023/12/07 05:04:27;;;;;;;27.30;12.30;;;0.30;99.90;;;;;;4969937;28;20130;-88
2023/12/07 05:06:53;;;;;;;27.20;12.00;;;0.30;99.90;;;;;;4954298;28;20098;-89
2023/12/07 05:09:19;;;;;;;30.77;13.87;;;0.30;99.90;;;;;;4957425;29;20456;-88
2023/12/07 05:11:45;;;;;;;29.37;12.23;;;0.30;99.90;;;;;;4956753;29;20043;-89
2023/12/07 05:14:11;;;;;;;27.13;11.77;;;0.30;99.90;;;;;;4957301;29;20415;-88
2023/12/07 05:16:37;;;;;;;30.03;12.67;;;0.30;99.90;;;;;;4957107;29;20043;-88
2023/12/07 05:19:05;;;;;;;27.73;11.73;;;0.30;99.90;;;;;;4955845;28;20062;-88
2023/12/07 05:21:31;;;;;;;27.57;11.93;;;0.20;99.90;;;;;;4957190;29;20047;-88
2023/12/07 05:24:06;;;;;;;27.87;12.43;;;0.10;99.90;;;;;;4957272;29;20055;-89
2023/12/07 05:26:32;;;;;;;27.43;11.57;;;0.10;99.90;;;;;;4956256;29;20050;-88
2023/12/07 05:29:06;;;;;;;25.77;10.50;;;1.40;99.90;;;;;;4956533;29;20491;-88
2023/12/07 05:31:32;;;;;;;;;;;0.10;99.90;;;;;;4957610;29;20055;-88
2023/12/07 05:33:57;;;;;;;24.43;11.63;;;-0.10;99.90;;;;;;4972183;28;19922;-88
2023/12/07 05:36:23;;;;;;;27.43;11.63;;;-0.10;99.90;;;;;;4956902;29;20043;-88
2023/12/07 05:38:49;;;;;;;25.30;11.00;;;1.20;99.90;;;;;;4956421;29;20070;-88
2023/12/07 05:41:14;;;;;;;30.10;11.87;;;0.20;99.90;;;;;;4956710;29;20090;-88
2023/12/07 05:43:43;;;;;;;27.50;11.83;;;0.70;99.90;;;;;;4956610;29;20054;-89
2023/12/07 05:46:09;;;;;;;27.70;11.73;;;0.60;99.90;;;;;;4956993;29;20050;-88
2023/12/07 05:48:35;;;;;;;26.10;11.33;;;0.00;99.90;;;;;;4957067;29;20395;-88
2023/12/07 05:51:02;;;;;;;24.23;10.77;;;-0.20;99.90;;;;;;4956563;29;20513;-90
2023/12/07 05:53:46;;;;;;;26.00;11.27;;;0.10;99.90;;;;;;4956096;29;20059;-88
2023/12/07 05:56:40;;;;;;;25.60;11.27;;;-0.30;99.90;;;;;;4956565;28;20290;-88
2023/12/07 05:59:06;;;;;;;29.65;11.50;;;0.80;99.90;;;;;;4956699;29;20181;-88
2023/12/07 06:01:53;;;;;;;26.07;11.27;;;-0.30;99.90;;;;;;4957223;29;20498;-88
2023/12/07 06:04:19;;;;;;;29.37;12.07;;;-0.10;99.90;;;;;;4957640;29;20055;-88
2023/12/07 06:06:46;;;;;;;30.23;11.90;;;0.10;99.90;;;;;;4958523;29;20130;-88
2023/12/07 06:09:14;;;;;;;27.30;10.67;;;-0.10;99.90;;;;;;4957048;29;20126;-89
2023/12/07 06:11:40;;;;;;;26.90;11.87;;;-0.10;99.90;;;;;;4956522;29;20554;-89
2023/12/07 06:14:06;;;;;;;28.30;11.57;;;-0.10;99.90;;;;;;4955686;29;20558;-88
2023/12/07 06:16:32;;;;;;;29.33;11.97;;;1.10;99.90;;;;;;4956216;29;20043;-88
2023/12/07 06:19:03;;;;;;;28.67;11.70;;;0.00;99.90;;;;;;4955214;28;20082;-88
2023/12/07 06:21:30;;;;;;;26.10;11.93;;;0.00;99.90;;;;;;4955340;29;20546;-88
2023/12/07 06:23:56;;;;;;;28.87;11.93;;;-0.10;99.90;;;;;;4956055;29;20142;-88
2023/12/07 06:26:21;;;;;;;28.47;11.90;;;1.40;99.90;;;;;;4956675;29;20190;-88
2023/12/07 06:29:09;;;;;;;28.27;12.33;;;-0.10;99.90;;;;;;4956180;29;20054;-88
2023/12/07 06:31:47;;;;;;;27.77;11.37;;;0.00;99.90;;;;;;4956692;29;20047;-88
2023/12/07 06:34:12;;;;;;;25.57;10.77;;;1.10;99.90;;;;;;4956460;29;20058;-88
2023/12/07 06:36:38;;;;;;;30.50;11.80;;;-0.20;99.90;;;;;;4956084;29;20043;-88
2023/12/07 06:39:04;;;;;;;28.20;11.17;;;-0.10;99.90;;;;;;4957323;29;20047;-88
2023/12/07 06:41:29;;;;;;;28.47;12.10;;;0.00;99.90;;;;;;4963248;28;20043;-88
2023/12/07 06:43:55;;;;;;;29.33;11.27;;;1.00;99.90;;;;;;4955486;29;20133;-88
2023/12/07 06:46:20;;;;;;;28.20;11.47;;;-0.40;99.90;;;;;;4965597;28;20133;-88
2023/12/07 06:48:46;;;;;;;29.90;11.90;;;-0.10;99.90;;;;;;4977543;28;20133;-88
2023/12/07 06:51:15;;;;;;;24.73;10.90;;;1.20;99.90;;;;;;4974476;28;20081;-88
2023/12/07 06:53:41;;;;;;;28.57;11.10;;;1.40;99.90;;;;;;4975712;28;20050;-88
2023/12/07 06:56:08;;;;;;;23.60;10.03;;;0.00;99.90;;;;;;4974413;28;20050;-89
2023/12/07 06:58:33;;;;;;;23.23;10.43;;;0.20;99.90;;;;;;4975423;28;20043;-88
2023/12/07 07:00:59;;;;;;;25.70;10.93;;;0.00;99.90;;;;;;4974832;28;20046;-88
2023/12/07 07:03:32;;;;;;;25.50;10.97;;;0.10;99.90;;;;;;4973653;28;20042;-88
2023/12/07 07:05:59;;;;;;;29.20;10.75;;;0.80;99.90;;;;;;4973248;28;20055;-88
2023/12/07 07:08:25;;;;;;;27.83;10.50;;;0.90;99.90;;;;;;4974561;28;20514;-86
2023/12/07 07:10:51;;;;;;;27.50;12.00;;;1.00;99.90;;;;;;4974024;28;20050;-85
2023/12/07 07:13:17;;;;;;;26.03;11.23;;;0.20;99.90;;;;;;4973923;28;20043;-84
2023/12/07 07:15:45;;;;;;;28.30;11.10;;;-0.10;99.90;;;;;;4974234;28;20380;-86
2023/12/07 07:18:14;;;;;;;24.13;10.07;;;1.70;99.90;;;;;;4974252;28;20082;-85
2023/12/07 07:20:44;;;;;;;22.70;9.90;;;0.70;99.90;;;;;;4974628;28;20039;-84
2023/12/07 07:23:10;;;;;;;34.87;16.00;;;1.90;99.90;;;;;;4974322;28;20474;-85
2023/12/07 07:25:36;;;;;;;33.43;15.20;;;1.40;99.90;;;;;;4973591;28;20066;-85
2023/12/07 07:28:02;;;;;;;35.73;15.67;;;0.50;99.90;;;;;;4974094;28;20058;-85
2023/12/07 07:30:28;;;;;;;30.50;14.07;;;0.90;99.90;;;;;;4974364;28;20049;-85
2023/12/07 07:32:53;;;;;;;31.13;14.60;;;-0.30;99.90;;;;;;4973562;28;20046;-85
2023/12/07 07:35:19;;;;;;;34.07;14.23;;;0.80;99.90;;;;;;4973713;28;20053;-84
2023/12/07 07:37:51;;;;;;;33.83;15.77;;;1.20;99.90;;;;;;4972050;23;20402;-84
2023/12/07 07:40:17;;;;;;;32.57;15.47;;;0.60;99.90;;;;;;4976655;28;20054;-85
2023/12/07 07:42:55;;;;;;;34.07;16.37;;;0.60;99.90;;;;;;4977238;28;20394;-84
2023/12/07 07:45:36;;;;;;;34.20;16.37;;;1.30;99.90;;;;;;4976385;28;20578;-86
2023/12/07 07:48:01;;;;;;;33.33;16.27;;;1.60;99.90;;;;;;4976145;28;20050;-83
2023/12/07 07:50:39;;;;;;;30.63;15.03;;;1.30;99.90;;;;;;4976548;28;20340;-83
2023/12/07 07:53:17;;;;;;;33.53;15.80;;;0.50;99.90;;;;;;4975770;28;20050;-85
2023/12/07 07:55:43;;;;;;;32.33;16.07;;;1.20;99.90;;;;;;4976540;28;20046;-84
2023/12/07 07:58:09;;;;;;;36.17;16.87;;;0.40;99.90;;;;;;4976663;28;20069;-85
2023/12/07 08:00:35;;;;;;;33.57;16.10;;;0.60;99.90;;;;;;4975042;28;20038;-83
2023/12/07 08:03:19;;;;;;;34.87;17.63;;;1.40;99.90;;;;;;4994201;28;20046;-84
2023/12/07 08:05:45;;;;;;;33.80;16.42;;;0.30;99.90;;;;;;4976480;28;20046;-84
2023/12/07 08:08:11;;;;;;;39.20;18.87;;;0.30;99.90;;;;;;4976365;28;20088;-84
2023/12/07 08:10:49;;;;;;;38.87;17.93;;;1.30;99.90;;;;;;4977411;28;20070;-83
2023/12/07 08:13:15;;;;;;;36.93;18.47;;;-0.80;99.90;;;;;;4960387;28;20053;-83
2023/12/07 08:15:46;;;;;;;35.03;16.93;;;0.10;99.90;;;;;;4995480;28;20046;-87
2023/12/07 08:18:12;;;;;;;38.70;17.53;;;0.70;99.90;;;;;;4977944;28;20061;-88
2023/12/07 08:20:41;;;;;;;35.43;18.10;;;0.40;99.90;;;;;;4977346;28;20426;-85
2023/12/07 08:23:06;;;;;;;38.20;18.40;;;0.30;99.90;;;;;;4975565;28;20057;-84
2023/12/07 08:25:50;;;;;;;39.50;19.77;;;1.00;99.90;;;;;;4993669;28;20054;-84
2023/12/07 08:28:33;;;;;;;37.55;18.95;;;0.30;99.90;;;;;;4975775;28;20097;-85
2023/12/07 08:30:58;;;;;;;39.13;18.73;;;0.60;99.90;;;;;;4994303;28;20050;-84
2023/12/07 08:33:24;;;;;;;34.00;19.20;;;1.00;99.90;;;;;;4977328;28;20622;-83
2023/12/07 08:36:03;;;;;;;42.13;21.27;;;1.60;99.90;;;;;;4968832;28;20043;-84
2023/12/07 08:38:48;;;;;;;39.93;20.00;;;0.70;99.90;;;;;;4992375;28;20058;-84
2023/12/07 08:41:14;;;;;;;40.47;21.40;;;1.40;99.90;;;;;;4976703;28;20042;-84
2023/12/07 08:44:13;;;;;;;38.27;19.27;;;0.70;99.90;;;;;;4972960;28;20454;-85
2023/12/07 08:46:54;;;;;;;39.83;20.53;;;-0.40;99.90;;;;;;4992454;28;20434;-85
2023/12/07 08:49:32;;;;;;;42.60;21.07;;;0.40;99.90;;;;;;4993504;28;20042;-85
2023/12/07 08:52:26;;;;;;;40.47;21.20;;;0.70;99.90;;;;;;4992908;28;20046;-85
2023/12/07 08:55:01;;;;;;;38.72;20.65;;;1.00;99.90;;;;;;4992901;28;20050;-85
2023/12/07 08:57:32;;;;;;;40.47;20.40;;;0.60;99.90;;;;;;4992193;28;20054;-86
2023/12/07 09:00:17;;;;;;;41.50;20.63;;;1.40;99.90;;;;;;4992166;28;20050;-84
2023/12/07 09:02:42;;;;;;;42.97;20.93;;;0.80;99.90;;;;;;4991341;28;20048;-85
2023/12/07 09:05:09;;;;;;;44.67;21.60;;;0.60;99.90;;;;;;5196340;23;20133;-84
2023/12/07 09:07:40;;;;;;;40.00;20.80;;;0.80;99.90;;;;;;4971993;28;20050;-85
2023/12/07 09:10:22;;;;;;;40.47;21.40;;;0.90;99.90;;;;;;4971394;28;20086;-82
2023/12/07 09:12:48;;;;;;;47.37;26.87;;;0.80;99.90;;;;;;4972993;28;20046;-84
2023/12/07 09:15:13;;;;;;;40.37;21.97;;;0.60;99.90;;;;;;4968542;28;20042;-83
2023/12/07 09:17:39;;;;;;;43.70;20.73;;;0.70;99.90;;;;;;4970969;28;20113;-83
2023/12/07 09:20:14;;;;;;;40.87;21.83;;;0.80;99.90;;;;;;4965764;28;20046;-82
2023/12/07 09:22:48;;;;;;;47.63;22.23;;;0.80;99.90;;;;;;4959636;28;20039;-82
2023/12/07 09:25:16;;;;;;;42.87;21.17;;;0.70;99.90;;;;;;4965120;28;20718;-84
2023/12/07 09:27:42;;;;;;;44.23;19.63;;;0.70;99.90;;;;;;4968476;28;20403;-83
2023/12/07 09:30:11;;;;;;;42.13;21.53;;;0.70;99.90;;;;;;4971125;28;20041;-83
2023/12/07 09:32:42;;;;;;;43.37;21.83;;;0.70;99.90;;;;;;4954606;28;20047;-84
2023/12/07 09:35:18;;;;;;;50.60;22.77;;;0.70;99.90;;;;;;4970605;28;20138;-84
2023/12/07 09:37:44;;;;;;;48.47;22.00;;;0.60;99.90;;;;;;4971037;28;20136;-84
2023/12/07 09:40:18;;;;;;;53.33;21.30;;;0.60;99.90;;;;;;4970300;28;20423;-84
2023/12/07 09:42:44;;;;;;;47.85;21.13;;;0.60;99.90;;;;;;4972274;28;20525;-84
2023/12/07 09:45:10;;;;;;;54.17;21.30;;;0.60;99.90;;;;;;4955443;28;20153;-84
2023/12/07 09:47:40;;;;;;;50.03;21.70;;;0.60;99.90;;;;;;4971781;28;20081;-86
2023/12/07 09:50:08;;;;;;;50.73;20.77;;;1.30;99.90;;;;;;4971563;28;20039;-84
2023/12/07 09:52:34;;;;;;;62.20;20.13;;;0.60;99.90;;;;;;4971012;28;20106;-84
2023/12/07 09:55:02;;;;;;;159.77;26.60;;;0.60;99.90;;;;;;4971184;28;20090;-84
2023/12/07 09:57:29;;;;;;;159.97;22.23;;;0.60;99.90;;;;;;4967538;28;20088;-85
2023/12/07 09:59:56;;;;;;;139.60;21.87;;;0.50;99.90;;;;;;4966730;28;20047;-85
2023/12/07 10:02:23;;;;;;;179.17;23.67;;;0.50;99.90;;;;;;4966857;28;20634;-84
2023/12/07 10:05:04;;;;;;;155.80;23.67;;;0.40;99.90;;;;;;4967475;28;20562;-85
2023/12/07 10:07:35;;;;;;;111.33;20.60;;;0.30;99.90;;;;;;4990415;23;20054;-84
2023/12/07 10:10:01;;;;;;;80.93;18.33;;;0.40;99.90;;;;;;4977852;28;20042;-85
2023/12/07 10:12:33;;;;;;;83.23;18.40;;;0.00;99.90;;;;;;4979546;28;20050;-85
2023/12/07 10:15:00;;;;;;;83.47;18.07;;;-0.10;99.90;;;;;;4978193;28;20046;-84
2023/12/07 10:17:44;;;;;;;75.33;19.50;;;0.00;99.90;;;;;;4978933;28;20053;-85
2023/12/07 10:20:11;;;;;;;69.25;19.67;;;1.60;99.90;;;;;;4977892;28;20057;-84
2023/12/07 10:22:39;;;;;;;93.20;21.13;;;0.20;99.90;;;;;;4979381;28;20165;-84
2023/12/07 10:25:05;;;;;;;80.07;19.97;;;0.20;99.90;;;;;;4978781;28;20134;-83
2023/12/07 10:27:38;;;;;;;59.63;17.23;;;0.20;99.90;;;;;;4979731;28;20042;-85
2023/12/07 10:30:06;;;;;;;62.43;17.07;;;0.10;99.90;;;;;;4982070;28;20048;-86
2023/12/07 10:32:37;;;;;;;106.53;21.27;;;0.20;99.90;;;;;;4999446;28;20458;-86
2023/12/07 10:35:03;;;;;;;40.47;17.17;;;0.20;99.90;;;;;;4980763;28;20065;-84
2023/12/07 10:37:28;;;;;;;119.87;23.10;;;0.20;99.90;;;;;;4984340;28;20434;-88
2023/12/07 10:40:09;;;;;;;101.23;20.60;;;0.70;99.90;;;;;;4990973;28;20514;-86
2023/12/07 10:42:37;;;;;;;84.87;19.80;;;-0.60;99.90;;;;;;4981837;23;20581;-87
2023/12/07 10:45:06;;;;;;;63.80;18.40;;;1.70;99.90;;;;;;4941061;29;20047;-85
2023/12/07 10:47:38;;;;;;;77.40;18.07;;;0.20;99.90;;;;;;4952588;29;20055;-87
2023/12/07 10:50:27;;;;;;;47.47;18.00;;;0.90;99.90;;;;;;4958520;29;20051;-86
2023/12/07 10:52:57;;;;;;;55.00;18.13;;;0.30;99.90;;;;;;4974367;28;20623;-86
2023/12/07 10:55:55;;;;;;;41.47;18.87;;;0.70;99.90;;;;;;4964148;28;20381;-87
2023/12/07 10:58:24;;;;;;;69.33;21.07;;;2.30;99.90;;;;;;4955344;29;20051;-86
2023/12/07 11:00:52;;;;;;;66.20;20.20;;;-0.80;99.90;;;;;;4955204;29;20051;-87
2023/12/07 11:03:18;;;;;;;53.97;19.73;;;0.70;99.90;;;;;;4955850;29;20047;-86
2023/12/07 11:06:07;;;;;;;65.37;20.80;;;1.40;99.90;;;;;;4943820;29;20102;-87
2023/12/07 11:09:02;;;;;;;75.20;21.47;;;0.30;99.90;;;;;;4957015;29;20055;-87
2023/12/07 11:12:02;;;;;;;90.77;23.77;;;0.50;99.90;;;;;;4954668;29;20487;-86
2023/12/07 11:14:46;;;;;;;83.73;21.80;;;0.10;99.90;;;;;;4940087;29;20055;-86
2023/12/07 11:17:12;;;;;;;84.10;22.05;;;0.60;99.90;;;;;;4956589;29;20055;-85
2023/12/07 11:19:43;;;;;;;116.53;23.23;;;0.60;99.90;;;;;;4959858;28;20051;-86
2023/12/07 11:22:15;;;;;;;121.63;23.03;;;0.60;99.90;;;;;;4952200;29;20052;-87
2023/12/07 11:25:03;;;;;;;124.90;24.37;;;0.70;99.90;;;;;;4939195;29;20048;-85
2023/12/07 11:27:35;;;;;;;78.40;21.83;;;1.30;99.90;;;;;;4935867;29;20526;-85
2023/12/07 11:30:46;;;;;;;124.53;22.77;;;0.50;99.90;;;;;;4935680;29;20050;-84
2023/12/07 11:33:15;;;;;;;132.83;24.60;;;-0.10;99.90;;;;;;4926463;29;20110;-88
2023/12/07 11:36:10;;;;;;;129.87;23.73;;;1.40;99.90;;;;;;4956089;29;20054;-84
2023/12/07 11:39:32;;;;;;;98.43;22.37;;;0.90;99.90;;;;;;4954223;29;20070;-89
2023/12/07 11:42:16;;;;;;;103.50;21.27;;;0.20;99.90;;;;;;4953071;29;20515;-86
2023/12/07 11:45:33;;;;;;;104.75;22.50;;;1.40;99.90;;;;;;4954630;28;20050;-83
2023/12/07 11:48:24;;;;;;;126.97;22.90;;;0.40;99.90;;;;;;4938187;28;20059;-85
2023/12/07 11:50:58;;;;;;;104.27;22.20;;;0.50;99.90;;;;;;4964293;28;20497;-85
2023/12/07 11:53:30;;;;;;;112.27;23.13;;;0.70;99.90;;;;;;4959647;28;20085;-84
2023/12/07 11:55:57;;;;;;;87.20;21.77;;;1.70;99.90;;;;;;4957273;28;20046;-84
2023/12/07 11:58:27;;;;;;;159.40;25.63;;;0.80;99.90;;;;;;4957608;28;20085;-84
2023/12/07 12:01:02;;;;;;;165.33;25.17;;;2.50;99.90;;;;;;4959502;28;20491;-85
2023/12/07 12:03:29;;;;;;;125.60;23.40;;;0.90;99.90;;;;;;4939827;29;20051;-86
2023/12/07 12:06:17;;;;;;;123.60;23.60;;;1.20;99.90;;;;;;4964625;28;20045;-87
2023/12/07 12:09:01;;;;;;;97.03;23.50;;;1.80;99.90;;;;;;4958269;28;20089;-87
2023/12/07 12:11:27;;;;;;;110.97;24.65;;;1.40;99.90;;;;;;4955458;28;20395;-86
2023/12/07 12:13:55;;;;;;;102.50;23.90;;;1.80;99.90;;;;;;4970568;28;20047;-86
2023/12/07 12:16:33;;;;;;;99.90;23.73;;;1.20;99.90;;;;;;4970480;28;20046;-86
2023/12/07 12:18:58;;;;;;;99.87;22.50;;;0.80;99.90;;;;;;4977333;28;20046;-86
2023/12/07 12:21:53;;;;;;;;;;;;;;;;;;;;;
2023/12/07 12:24:29;;;;;;;103.93;23.47;;;2.20;99.90;;;;;;4957173;29;20057;-87
2023/12/07 12:26:58;;;;;;;110.27;23.70;;;1.30;99.90;;;;;;4959839;28;20373;-86
2023/12/07 12:29:24;;;;;;;139.30;24.87;;;1.30;99.90;;;;;;4940249;29;20043;-86
2023/12/07 12:31:50;;;;;;;115.93;22.97;;;2.30;99.90;;;;;;4954779;28;20076;-85
2023/12/07 12:34:17;;;;;;;147.20;27.17;;;0.90;99.90;;;;;;4956458;28;20054;-84
2023/12/07 12:36:43;;;;;;;152.80;26.03;;;1.00;99.90;;;;;;4956832;28;20070;-86
2023/12/07 12:39:10;;;;;;;114.50;22.47;;;2.30;99.90;;;;;;4973614;28;20468;-86
2023/12/07 12:41:36;;;;;;;145.03;26.30;;;1.00;99.90;;;;;;4955486;28;20042;-85
2023/12/07 12:44:02;;;;;;;166.13;26.60;;;1.70;99.90;;;;;;4973333;28;20086;-84
2023/12/07 12:46:28;;;;;;;155.57;25.67;;;3.20;99.90;;;;;;4956663;28;20101;-84
2023/12/07 12:48:57;;;;;;;157.70;25.10;;;1.80;99.90;;;;;;4956001;28;20054;-84